sensor_id;sensor_type;location;lat;lon;timestamp;P1;durP1;ratioP1;P2;durP2;ratioP2
60714;SDS011;46564;53.096;8.246;2023-11-18T00:02:39;54.03;;;19.80;;
60714;SDS011;46564;53.096;8.246;2023-11-18T00:07:40;71.47;;;18.40;;
60714;SDS011;46564;53.096;8.246;2023-11-18T00:12:45;49.63;;;16.88;;
60714;SDS011;46564;53.096;8.246;2023-11-18T00:17:49;34.70;;;14.80;;
60714;SDS011;46564;53.096;8.246;2023-11-18T00:22:50;25.67;;;12.95;;
60714;SDS011;46564;53.096;8.246;2023-11-18T00:27:52;29.15;;;13.00;;
60714;SDS011;46564;53.096;8.246;2023-11-18T00:32:53;21.02;;;12.15;;
60714;SDS011;46564;53.096;8.246;2023-11-18T00:37:55;22.92;;;11.70;;
60714;SDS011;46564;53.096;8.246;2023-11-18T00:42:56;21.92;;;11.35;;
60714;SDS011;46564;53.096;8.246;2023-11-18T00:47:57;19.70;;;11.20;;
60714;SDS011;46564;53.096;8.246;2023-11-18T00:52:59;22.20;;;11.77;;
60714;SDS011;46564;53.096;8.246;2023-11-18T00:58:00;25.50;;;11.88;;
60714;SDS011;46564;53.096;8.246;2023-11-18T01:03:01;18.70;;;9.82;;
60714;SDS011;46564;53.096;8.246;2023-11-18T01:08:03;18.60;;;9.63;;
60714;SDS011;46564;53.096;8.246;2023-11-18T01:13:04;16.40;;;8.55;;
60714;SDS011;46564;53.096;8.246;2023-11-18T01:18:05;14.57;;;8.10;;
60714;SDS011;46564;53.096;8.246;2023-11-18T01:23:07;18.50;;;8.27;;
60714;SDS011;46564;53.096;8.246;2023-11-18T01:28:08;14.15;;;8.77;;
60714;SDS011;46564;53.096;8.246;2023-11-18T01:33:10;16.13;;;8.48;;
60714;SDS011;46564;53.096;8.246;2023-11-18T01:38:11;13.70;;;7.63;;
60714;SDS011;46564;53.096;8.246;2023-11-18T01:43:12;12.07;;;6.80;;
60714;SDS011;46564;53.096;8.246;2023-11-18T01:48:14;17.20;;;7.75;;
60714;SDS011;46564;53.096;8.246;2023-11-18T01:53:15;16.67;;;7.70;;
60714;SDS011;46564;53.096;8.246;2023-11-18T01:58:17;15.15;;;7.95;;
60714;SDS011;46564;53.096;8.246;2023-11-18T02:03:18;17.60;;;8.15;;
60714;SDS011;46564;53.096;8.246;2023-11-18T02:08:19;20.88;;;9.20;;
60714;SDS011;46564;53.096;8.246;2023-11-18T02:13:24;17.75;;;8.52;;
60714;SDS011;46564;53.096;8.246;2023-11-18T02:18:29;19.65;;;8.95;;
60714;SDS011;46564;53.096;8.246;2023-11-18T02:23:33;20.15;;;9.77;;
60714;SDS011;46564;53.096;8.246;2023-11-18T02:28:35;19.88;;;9.02;;
60714;SDS011;46564;53.096;8.246;2023-11-18T02:33:40;27.60;;;10.90;;
60714;SDS011;46564;53.096;8.246;2023-11-18T02:38:47;26.17;;;10.90;;
60714;SDS011;46564;53.096;8.246;2023-11-18T02:43:50;24.17;;;11.85;;
60714;SDS011;46564;53.096;8.246;2023-11-18T02:48:52;23.73;;;11.52;;
60714;SDS011;46564;53.096;8.246;2023-11-18T02:53:53;25.90;;;11.55;;
60714;SDS011;46564;53.096;8.246;2023-11-18T02:58:55;27.40;;;12.13;;
60714;SDS011;46564;53.096;8.246;2023-11-18T03:03:56;28.20;;;12.68;;
60714;SDS011;46564;53.096;8.246;2023-11-18T03:08:58;28.35;;;11.57;;
60714;SDS011;46564;53.096;8.246;2023-11-18T03:13:59;26.38;;;12.68;;
60714;SDS011;46564;53.096;8.246;2023-11-18T03:19:01;25.85;;;12.98;;
60714;SDS011;46564;53.096;8.246;2023-11-18T03:24:02;37.05;;;13.48;;
60714;SDS011;46564;53.096;8.246;2023-11-18T03:29:04;32.50;;;14.20;;
60714;SDS011;46564;53.096;8.246;2023-11-18T03:34:05;38.45;;;15.15;;
60714;SDS011;46564;53.096;8.246;2023-11-18T03:39:06;55.63;;;20.45;;
60714;SDS011;46564;53.096;8.246;2023-11-18T03:44:07;45.72;;;16.23;;
60714;SDS011;46564;53.096;8.246;2023-11-18T03:49:09;57.47;;;16.52;;
60714;SDS011;46564;53.096;8.246;2023-11-18T03:54:12;46.67;;;15.77;;
60714;SDS011;46564;53.096;8.246;2023-11-18T03:59:14;64.15;;;17.35;;
60714;SDS011;46564;53.096;8.246;2023-11-18T04:04:15;60.42;;;16.80;;
60714;SDS011;46564;53.096;8.246;2023-11-18T04:09:16;48.70;;;15.50;;
60714;SDS011;46564;53.096;8.246;2023-11-18T04:14:20;79.50;;;17.48;;
60714;SDS011;46564;53.096;8.246;2023-11-18T04:19:21;68.93;;;17.58;;
60714;SDS011;46564;53.096;8.246;2023-11-18T04:24:22;53.28;;;19.17;;
60714;SDS011;46564;53.096;8.246;2023-11-18T04:29:24;44.95;;;19.05;;
60714;SDS011;46564;53.096;8.246;2023-11-18T04:34:25;60.70;;;18.92;;
60714;SDS011;46564;53.096;8.246;2023-11-18T04:39:26;55.95;;;19.42;;
60714;SDS011;46564;53.096;8.246;2023-11-18T04:44:27;61.65;;;17.20;;
60714;SDS011;46564;53.096;8.246;2023-11-18T04:49:29;59.47;;;18.08;;
60714;SDS011;46564;53.096;8.246;2023-11-18T04:54:30;48.30;;;19.42;;
60714;SDS011;46564;53.096;8.246;2023-11-18T04:59:31;52.58;;;19.48;;
60714;SDS011;46564;53.096;8.246;2023-11-18T05:04:33;50.15;;;18.88;;
60714;SDS011;46564;53.096;8.246;2023-11-18T05:09:34;76.57;;;20.55;;
60714;SDS011;46564;53.096;8.246;2023-11-18T05:14:35;68.75;;;19.95;;
60714;SDS011;46564;53.096;8.246;2023-11-18T05:19:36;45.88;;;19.75;;
60714;SDS011;46564;53.096;8.246;2023-11-18T05:24:41;42.15;;;18.92;;
60714;SDS011;46564;53.096;8.246;2023-11-18T05:29:45;48.45;;;18.85;;
60714;SDS011;46564;53.096;8.246;2023-11-18T05:34:46;52.10;;;18.15;;
60714;SDS011;46564;53.096;8.246;2023-11-18T05:39:48;56.35;;;18.40;;
60714;SDS011;46564;53.096;8.246;2023-11-18T05:44:49;49.13;;;18.83;;
60714;SDS011;46564;53.096;8.246;2023-11-18T05:49:50;60.05;;;19.67;;
60714;SDS011;46564;53.096;8.246;2023-11-18T05:54:51;81.07;;;18.90;;
60714;SDS011;46564;53.096;8.246;2023-11-18T05:59:53;58.45;;;19.73;;
60714;SDS011;46564;53.096;8.246;2023-11-18T06:04:54;52.42;;;18.95;;
60714;SDS011;46564;53.096;8.246;2023-11-18T06:09:55;67.85;;;19.40;;
60714;SDS011;46564;53.096;8.246;2023-11-18T06:14:57;56.83;;;18.98;;
60714;SDS011;46564;53.096;8.246;2023-11-18T06:19:58;55.95;;;19.08;;
60714;SDS011;46564;53.096;8.246;2023-11-18T06:25:01;58.80;;;21.17;;
60714;SDS011;46564;53.096;8.246;2023-11-18T06:30:03;46.35;;;20.10;;
60714;SDS011;46564;53.096;8.246;2023-11-18T06:35:04;55.72;;;20.83;;
60714;SDS011;46564;53.096;8.246;2023-11-18T06:40:07;52.50;;;20.83;;
60714;SDS011;46564;53.096;8.246;2023-11-18T06:45:09;53.55;;;21.58;;
60714;SDS011;46564;53.096;8.246;2023-11-18T06:50:10;45.30;;;20.33;;
60714;SDS011;46564;53.096;8.246;2023-11-18T06:55:11;62.05;;;22.10;;
60714;SDS011;46564;53.096;8.246;2023-11-18T07:00:13;50.58;;;22.25;;
60714;SDS011;46564;53.096;8.246;2023-11-18T07:05:14;47.88;;;22.33;;
60714;SDS011;46564;53.096;8.246;2023-11-18T07:10:16;57.22;;;23.48;;
60714;SDS011;46564;53.096;8.246;2023-11-18T07:15:18;59.13;;;24.50;;
60714;SDS011;46564;53.096;8.246;2023-11-18T07:20:19;52.22;;;22.73;;
60714;SDS011;46564;53.096;8.246;2023-11-18T07:25:20;52.47;;;23.63;;
60714;SDS011;46564;53.096;8.246;2023-11-18T07:30:21;55.67;;;23.98;;
60714;SDS011;46564;53.096;8.246;2023-11-18T07:35:23;56.33;;;23.73;;
60714;SDS011;46564;53.096;8.246;2023-11-18T07:40:24;59.78;;;25.33;;
60714;SDS011;46564;53.096;8.246;2023-11-18T07:45:25;54.67;;;23.90;;
60714;SDS011;46564;53.096;8.246;2023-11-18T07:50:26;56.08;;;25.35;;
60714;SDS011;46564;53.096;8.246;2023-11-18T07:55:28;58.55;;;24.38;;
60714;SDS011;46564;53.096;8.246;2023-11-18T08:00:30;59.38;;;24.58;;
60714;SDS011;46564;53.096;8.246;2023-11-18T08:05:31;55.30;;;23.58;;
60714;SDS011;46564;53.096;8.246;2023-11-18T08:10:39;59.70;;;25.10;;
60714;SDS011;46564;53.096;8.246;2023-11-18T08:15:41;62.33;;;26.42;;
60714;SDS011;46564;53.096;8.246;2023-11-18T08:20:43;58.15;;;24.52;;
60714;SDS011;46564;53.096;8.246;2023-11-18T08:25:44;65.30;;;25.77;;
60714;SDS011;46564;53.096;8.246;2023-11-18T08:30:45;55.58;;;23.80;;
60714;SDS011;46564;53.096;8.246;2023-11-18T08:35:48;59.92;;;24.95;;
60714;SDS011;46564;53.096;8.246;2023-11-18T08:40:49;55.92;;;24.80;;
60714;SDS011;46564;53.096;8.246;2023-11-18T08:45:51;51.50;;;25.05;;
60714;SDS011;46564;53.096;8.246;2023-11-18T08:50:52;59.85;;;24.10;;
60714;SDS011;46564;53.096;8.246;2023-11-18T08:55:56;44.97;;;20.88;;
60714;SDS011;46564;53.096;8.246;2023-11-18T09:00:58;58.55;;;23.17;;
60714;SDS011;46564;53.096;8.246;2023-11-18T09:06:00;47.90;;;21.67;;
60714;SDS011;46564;53.096;8.246;2023-11-18T09:11:07;52.55;;;22.40;;
60714;SDS011;46564;53.096;8.246;2023-11-18T09:16:09;48.10;;;22.88;;
60714;SDS011;46564;53.096;8.246;2023-11-18T09:21:12;51.28;;;22.65;;
60714;SDS011;46564;53.096;8.246;2023-11-18T09:26:13;45.05;;;20.73;;
60714;SDS011;46564;53.096;8.246;2023-11-18T09:31:15;50.53;;;19.67;;
60714;SDS011;46564;53.096;8.246;2023-11-18T09:36:17;42.38;;;19.75;;
60714;SDS011;46564;53.096;8.246;2023-11-18T09:41:18;50.47;;;20.85;;
60714;SDS011;46564;53.096;8.246;2023-11-18T09:46:24;46.83;;;18.95;;
60714;SDS011;46564;53.096;8.246;2023-11-18T09:51:27;41.45;;;18.77;;
60714;SDS011;46564;53.096;8.246;2023-11-18T10:01:29;46.25;;;17.20;;
60714;SDS011;46564;53.096;8.246;2023-11-18T10:06:31;44.20;;;20.23;;
60714;SDS011;46564;53.096;8.246;2023-11-18T10:11:33;48.83;;;19.08;;
60714;SDS011;46564;53.096;8.246;2023-11-18T10:16:34;45.75;;;18.75;;
60714;SDS011;46564;53.096;8.246;2023-11-18T10:21:36;44.88;;;19.45;;
60714;SDS011;46564;53.096;8.246;2023-11-18T10:26:37;47.53;;;19.35;;
60714;SDS011;46564;53.096;8.246;2023-11-18T10:31:41;50.85;;;19.27;;
60714;SDS011;46564;53.096;8.246;2023-11-18T10:36:58;44.42;;;19.70;;
60714;SDS011;46564;53.096;8.246;2023-11-18T10:41:59;50.40;;;20.17;;
60714;SDS011;46564;53.096;8.246;2023-11-18T10:47:01;53.25;;;20.25;;
60714;SDS011;46564;53.096;8.246;2023-11-18T10:52:02;44.80;;;18.00;;
60714;SDS011;46564;53.096;8.246;2023-11-18T10:57:08;43.97;;;17.33;;
60714;SDS011;46564;53.096;8.246;2023-11-18T11:02:21;44.78;;;18.48;;
60714;SDS011;46564;53.096;8.246;2023-11-18T11:07:43;55.85;;;18.92;;
60714;SDS011;46564;53.096;8.246;2023-11-18T11:12:49;53.90;;;19.13;;
60714;SDS011;46564;53.096;8.246;2023-11-18T11:17:52;51.88;;;21.05;;
60714;SDS011;46564;53.096;8.246;2023-11-18T11:28:22;42.75;;;18.20;;
60714;SDS011;46564;53.096;8.246;2023-11-18T11:33:29;49.13;;;19.33;;
60714;SDS011;46564;53.096;8.246;2023-11-18T11:38:33;60.40;;;19.73;;
60714;SDS011;46564;53.096;8.246;2023-11-18T11:43:34;47.72;;;20.83;;
60714;SDS011;46564;53.096;8.246;2023-11-18T11:48:37;51.72;;;22.20;;
60714;SDS011;46564;53.096;8.246;2023-11-18T11:53:39;57.63;;;20.33;;
60714;SDS011;46564;53.096;8.246;2023-11-18T11:58:41;59.03;;;20.15;;
60714;SDS011;46564;53.096;8.246;2023-11-18T12:03:42;46.63;;;20.20;;
60714;SDS011;46564;53.096;8.246;2023-11-18T12:08:46;55.85;;;20.30;;
60714;SDS011;46564;53.096;8.246;2023-11-18T12:14:03;53.40;;;18.50;;
60714;SDS011;46564;53.096;8.246;2023-11-18T12:24:25;54.35;;;20.90;;
60714;SDS011;46564;53.096;8.246;2023-11-18T12:29:32;63.10;;;22.95;;
60714;SDS011;46564;53.096;8.246;2023-11-18T12:34:49;56.25;;;18.95;;
60714;SDS011;46564;53.096;8.246;2023-11-18T12:40:09;49.67;;;19.48;;
60714;SDS011;46564;53.096;8.246;2023-11-18T12:50:18;43.42;;;17.35;;
60714;SDS011;46564;53.096;8.246;2023-11-18T12:55:20;44.83;;;19.27;;
60714;SDS011;46564;53.096;8.246;2023-11-18T13:00:21;51.63;;;19.00;;
60714;SDS011;46564;53.096;8.246;2023-11-18T13:05:25;56.45;;;19.80;;
60714;SDS011;46564;53.096;8.246;2023-11-18T13:10:27;46.40;;;18.52;;
60714;SDS011;46564;53.096;8.246;2023-11-18T13:15:29;47.72;;;18.90;;
60714;SDS011;46564;53.096;8.246;2023-11-18T13:20:30;47.08;;;17.95;;
60714;SDS011;46564;53.096;8.246;2023-11-18T13:25:32;43.67;;;18.08;;
60714;SDS011;46564;53.096;8.246;2023-11-18T13:30:33;37.85;;;17.25;;
60714;SDS011;46564;53.096;8.246;2023-11-18T13:35:37;41.30;;;17.40;;
60714;SDS011;46564;53.096;8.246;2023-11-18T13:40:45;38.72;;;14.88;;
60714;SDS011;46564;53.096;8.246;2023-11-18T13:45:50;44.53;;;17.67;;
60714;SDS011;46564;53.096;8.246;2023-11-18T13:50:52;38.50;;;15.23;;
60714;SDS011;46564;53.096;8.246;2023-11-18T13:55:53;42.67;;;15.38;;
60714;SDS011;46564;53.096;8.246;2023-11-18T14:00:54;38.00;;;15.65;;
60714;SDS011;46564;53.096;8.246;2023-11-18T14:05:57;35.75;;;14.60;;
60714;SDS011;46564;53.096;8.246;2023-11-18T14:11:05;32.05;;;15.48;;
60714;SDS011;46564;53.096;8.246;2023-11-18T14:16:16;32.00;;;13.90;;
60714;SDS011;46564;53.096;8.246;2023-11-18T14:21:24;34.25;;;14.60;;
60714;SDS011;46564;53.096;8.246;2023-11-18T14:26:31;33.35;;;14.65;;
60714;SDS011;46564;53.096;8.246;2023-11-18T14:31:35;28.13;;;12.45;;
60714;SDS011;46564;53.096;8.246;2023-11-18T14:36:37;26.15;;;12.35;;
60714;SDS011;46564;53.096;8.246;2023-11-18T14:41:38;29.98;;;12.60;;
60714;SDS011;46564;53.096;8.246;2023-11-18T14:46:40;36.22;;;12.55;;
60714;SDS011;46564;53.096;8.246;2023-11-18T14:51:42;32.15;;;13.18;;
60714;SDS011;46564;53.096;8.246;2023-11-18T14:56:44;29.90;;;11.18;;
60714;SDS011;46564;53.096;8.246;2023-11-18T15:01:47;28.73;;;11.57;;
60714;SDS011;46564;53.096;8.246;2023-11-18T15:06:48;28.63;;;12.85;;
60714;SDS011;46564;53.096;8.246;2023-11-18T15:11:50;31.85;;;12.25;;
60714;SDS011;46564;53.096;8.246;2023-11-18T15:16:51;28.73;;;11.93;;
60714;SDS011;46564;53.096;8.246;2023-11-18T15:21:52;25.15;;;11.40;;
60714;SDS011;46564;53.096;8.246;2023-11-18T15:26:53;20.30;;;10.65;;
60714;SDS011;46564;53.096;8.246;2023-11-18T15:31:55;26.60;;;10.80;;
60714;SDS011;46564;53.096;8.246;2023-11-18T15:36:56;24.02;;;11.35;;
60714;SDS011;46564;53.096;8.246;2023-11-18T15:41:57;22.88;;;11.35;;
60714;SDS011;46564;53.096;8.246;2023-11-18T15:46:59;29.30;;;11.50;;
60714;SDS011;46564;53.096;8.246;2023-11-18T15:52:00;27.67;;;11.80;;
60714;SDS011;46564;53.096;8.246;2023-11-18T15:57:01;26.90;;;11.35;;
60714;SDS011;46564;53.096;8.246;2023-11-18T16:02:03;22.92;;;10.05;;
60714;SDS011;46564;53.096;8.246;2023-11-18T16:07:04;30.95;;;12.07;;
60714;SDS011;46564;53.096;8.246;2023-11-18T16:12:05;23.52;;;10.93;;
60714;SDS011;46564;53.096;8.246;2023-11-18T16:17:07;22.88;;;11.65;;
60714;SDS011;46564;53.096;8.246;2023-11-18T16:22:08;22.23;;;11.18;;
60714;SDS011;46564;53.096;8.246;2023-11-18T16:27:10;19.45;;;9.88;;
60714;SDS011;46564;53.096;8.246;2023-11-18T16:32:11;25.80;;;10.70;;
60714;SDS011;46564;53.096;8.246;2023-11-18T16:37:12;21.52;;;9.88;;
60714;SDS011;46564;53.096;8.246;2023-11-18T16:42:13;26.10;;;10.32;;
60714;SDS011;46564;53.096;8.246;2023-11-18T16:47:15;17.73;;;8.65;;
60714;SDS011;46564;53.096;8.246;2023-11-18T16:52:16;20.88;;;9.50;;
60714;SDS011;46564;53.096;8.246;2023-11-18T16:57:17;18.02;;;9.02;;
60714;SDS011;46564;53.096;8.246;2023-11-18T17:02:19;20.15;;;9.30;;
60714;SDS011;46564;53.096;8.246;2023-11-18T17:07:20;24.58;;;8.52;;
60714;SDS011;46564;53.096;8.246;2023-11-18T17:12:21;15.55;;;7.13;;
60714;SDS011;46564;53.096;8.246;2023-11-18T17:17:22;15.60;;;8.18;;
60714;SDS011;46564;53.096;8.246;2023-11-18T17:22:24;17.58;;;7.75;;
60714;SDS011;46564;53.096;8.246;2023-11-18T17:27:25;14.50;;;6.93;;
60714;SDS011;46564;53.096;8.246;2023-11-18T17:32:26;15.90;;;6.97;;
60714;SDS011;46564;53.096;8.246;2023-11-18T17:37:27;15.85;;;6.07;;
60714;SDS011;46564;53.096;8.246;2023-11-18T17:42:29;16.08;;;6.05;;
60714;SDS011;46564;53.096;8.246;2023-11-18T17:47:31;10.70;;;5.40;;
60714;SDS011;46564;53.096;8.246;2023-11-18T17:52:32;11.55;;;5.65;;
60714;SDS011;46564;53.096;8.246;2023-11-18T17:57:34;9.98;;;4.55;;
60714;SDS011;46564;53.096;8.246;2023-11-18T18:02:35;10.40;;;4.68;;
60714;SDS011;46564;53.096;8.246;2023-11-18T18:07:36;7.97;;;3.63;;
60714;SDS011;46564;53.096;8.246;2023-11-18T18:12:38;9.30;;;3.33;;
60714;SDS011;46564;53.096;8.246;2023-11-18T18:17:40;7.97;;;2.92;;
60714;SDS011;46564;53.096;8.246;2023-11-18T18:22:42;7.47;;;3.08;;
60714;SDS011;46564;53.096;8.246;2023-11-18T18:27:43;11.55;;;3.17;;
60714;SDS011;46564;53.096;8.246;2023-11-18T18:32:45;8.23;;;3.55;;
60714;SDS011;46564;53.096;8.246;2023-11-18T18:37:46;6.85;;;2.78;;
60714;SDS011;46564;53.096;8.246;2023-11-18T18:42:47;11.40;;;3.83;;
60714;SDS011;46564;53.096;8.246;2023-11-18T18:47:48;6.40;;;2.90;;
60714;SDS011;46564;53.096;8.246;2023-11-18T18:52:50;7.93;;;3.15;;
60714;SDS011;46564;53.096;8.246;2023-11-18T18:57:51;7.75;;;3.47;;
60714;SDS011;46564;53.096;8.246;2023-11-18T19:02:52;11.27;;;3.50;;
60714;SDS011;46564;53.096;8.246;2023-11-18T19:07:54;10.05;;;3.65;;
60714;SDS011;46564;53.096;8.246;2023-11-18T19:12:55;10.02;;;4.50;;
60714;SDS011;46564;53.096;8.246;2023-11-18T19:17:56;9.77;;;4.25;;
60714;SDS011;46564;53.096;8.246;2023-11-18T19:22:58;9.40;;;4.28;;
60714;SDS011;46564;53.096;8.246;2023-11-18T19:27:59;9.82;;;3.97;;
60714;SDS011;46564;53.096;8.246;2023-11-18T19:33:00;9.63;;;4.35;;
60714;SDS011;46564;53.096;8.246;2023-11-18T19:38:02;9.23;;;3.70;;
60714;SDS011;46564;53.096;8.246;2023-11-18T19:43:03;9.13;;;3.67;;
60714;SDS011;46564;53.096;8.246;2023-11-18T19:48:04;8.65;;;4.10;;
60714;SDS011;46564;53.096;8.246;2023-11-18T19:53:05;8.52;;;3.90;;
60714;SDS011;46564;53.096;8.246;2023-11-18T19:58:07;9.57;;;4.32;;
60714;SDS011;46564;53.096;8.246;2023-11-18T20:03:08;9.88;;;4.38;;
60714;SDS011;46564;53.096;8.246;2023-11-18T20:08:11;8.45;;;3.95;;
60714;SDS011;46564;53.096;8.246;2023-11-18T20:13:12;8.75;;;3.50;;
60714;SDS011;46564;53.096;8.246;2023-11-18T20:18:13;8.32;;;3.80;;
60714;SDS011;46564;53.096;8.246;2023-11-18T20:23:15;10.70;;;4.43;;
60714;SDS011;46564;53.096;8.246;2023-11-18T20:28:16;15.98;;;4.70;;
60714;SDS011;46564;53.096;8.246;2023-11-18T20:33:17;8.68;;;4.20;;
60714;SDS011;46564;53.096;8.246;2023-11-18T20:38:19;10.68;;;4.20;;
60714;SDS011;46564;53.096;8.246;2023-11-18T20:43:20;8.55;;;3.70;;
60714;SDS011;46564;53.096;8.246;2023-11-18T20:48:21;8.10;;;3.58;;
60714;SDS011;46564;53.096;8.246;2023-11-18T20:53:22;6.88;;;3.13;;
60714;SDS011;46564;53.096;8.246;2023-11-18T20:58:24;6.57;;;3.53;;
60714;SDS011;46564;53.096;8.246;2023-11-18T21:03:25;9.30;;;3.55;;
60714;SDS011;46564;53.096;8.246;2023-11-18T21:08:27;6.53;;;3.55;;
60714;SDS011;46564;53.096;8.246;2023-11-18T21:13:28;7.22;;;3.50;;
60714;SDS011;46564;53.096;8.246;2023-11-18T21:18:30;7.63;;;3.67;;
60714;SDS011;46564;53.096;8.246;2023-11-18T21:23:31;7.47;;;3.85;;
60714;SDS011;46564;53.096;8.246;2023-11-18T21:28:33;8.43;;;4.00;;
60714;SDS011;46564;53.096;8.246;2023-11-18T21:33:36;10.32;;;4.35;;
60714;SDS011;46564;53.096;8.246;2023-11-18T21:38:38;8.45;;;4.43;;
60714;SDS011;46564;53.096;8.246;2023-11-18T21:43:39;13.60;;;5.53;;
60714;SDS011;46564;53.096;8.246;2023-11-18T21:48:40;9.32;;;4.90;;
60714;SDS011;46564;53.096;8.246;2023-11-18T21:53:41;9.35;;;4.97;;
60714;SDS011;46564;53.096;8.246;2023-11-18T21:58:43;8.68;;;5.15;;
60714;SDS011;46564;53.096;8.246;2023-11-18T22:03:44;9.27;;;4.65;;
60714;SDS011;46564;53.096;8.246;2023-11-18T22:08:45;9.00;;;4.90;;
60714;SDS011;46564;53.096;8.246;2023-11-18T22:13:47;9.25;;;5.57;;
60714;SDS011;46564;53.096;8.246;2023-11-18T22:18:48;9.35;;;5.32;;
60714;SDS011;46564;53.096;8.246;2023-11-18T22:23:50;9.40;;;5.30;;
60714;SDS011;46564;53.096;8.246;2023-11-18T22:28:51;9.63;;;5.95;;
60714;SDS011;46564;53.096;8.246;2023-11-18T22:33:52;11.15;;;5.68;;
60714;SDS011;46564;53.096;8.246;2023-11-18T22:38:54;9.70;;;6.00;;
60714;SDS011;46564;53.096;8.246;2023-11-18T22:43:55;9.88;;;6.38;;
60714;SDS011;46564;53.096;8.246;2023-11-18T22:48:56;13.75;;;6.30;;
60714;SDS011;46564;53.096;8.246;2023-11-18T22:53:57;10.57;;;6.75;;
60714;SDS011;46564;53.096;8.246;2023-11-18T22:58:59;10.32;;;6.38;;
60714;SDS011;46564;53.096;8.246;2023-11-18T23:04:00;12.40;;;7.97;;
60714;SDS011;46564;53.096;8.246;2023-11-18T23:09:01;13.43;;;8.27;;
60714;SDS011;46564;53.096;8.246;2023-11-18T23:14:03;13.05;;;7.85;;
60714;SDS011;46564;53.096;8.246;2023-11-18T23:19:04;14.75;;;8.75;;
60714;SDS011;46564;53.096;8.246;2023-11-18T23:24:07;14.05;;;9.48;;
60714;SDS011;46564;53.096;8.246;2023-11-18T23:29:09;17.27;;;10.07;;
60714;SDS011;46564;53.096;8.246;2023-11-18T23:34:10;15.73;;;10.02;;
60714;SDS011;46564;53.096;8.246;2023-11-18T23:39:11;17.20;;;10.18;;
60714;SDS011;46564;53.096;8.246;2023-11-18T23:44:12;18.10;;;9.93;;
60714;SDS011;46564;53.096;8.246;2023-11-18T23:49:14;16.25;;;10.27;;
60714;SDS011;46564;53.096;8.246;2023-11-18T23:54:15;18.40;;;11.32;;
60714;SDS011;46564;53.096;8.246;2023-11-18T23:59:16;22.27;;;12.30;;
